createdAt,value
2023-05-01T00:01:57.736Z,4.30
2023-05-01T00:04:26.461Z,4.30
2023-05-01T00:06:55.003Z,4.53
2023-05-01T00:09:23.379Z,5.23
2023-05-01T00:11:51.746Z,4.10
2023-05-01T00:14:21.517Z,5.77
2023-05-01T00:16:49.989Z,4.80
2023-05-01T00:19:19.039Z,6.03
2023-05-01T00:21:48.438Z,5.13
2023-05-01T00:24:17.389Z,4.13
2023-05-01T00:26:46.225Z,4.30
2023-05-01T00:29:14.640Z,4.87
2023-05-01T00:31:45.715Z,4.30
2023-05-01T00:34:14.175Z,4.63
2023-05-01T00:36:42.528Z,5.07
2023-05-01T00:39:11.529Z,4.93
2023-05-01T00:41:39.849Z,4.50
2023-05-01T00:44:08.217Z,6.20
2023-05-01T00:46:37.638Z,5.60
2023-05-01T00:49:07.405Z,5.30
2023-05-01T00:51:35.738Z,5.17
2023-05-01T00:54:04.451Z,5.47
2023-05-01T00:56:32.999Z,4.90
2023-05-01T00:59:01.916Z,5.47
2023-05-01T01:01:30.384Z,4.60
2023-05-01T01:03:58.768Z,5.87
2023-05-01T01:06:32.694Z,5.73
2023-05-01T01:09:07.993Z,4.40
2023-05-01T01:11:40.053Z,4.70
2023-05-01T01:14:10.307Z,5.73
2023-05-01T01:16:41.604Z,5.07
2023-05-01T01:19:19.336Z,4.90
2023-05-01T01:21:50.973Z,5.30
2023-05-01T01:24:37.011Z,5.23
2023-05-01T01:27:23.811Z,5.00
2023-05-01T01:29:58.474Z,6.17
2023-05-01T01:32:41.112Z,4.07
2023-05-01T01:35:14.612Z,4.70
2023-05-01T01:37:44.883Z,4.53
2023-05-01T01:40:15.056Z,5.20
2023-05-01T01:42:44.770Z,5.83
2023-05-01T01:45:17.495Z,4.07
2023-05-01T01:47:46.053Z,4.60
2023-05-01T01:50:16.185Z,5.53
2023-05-01T01:52:44.995Z,5.13
2023-05-01T01:55:14.595Z,4.87
2023-05-01T01:57:44.159Z,4.73
2023-05-01T02:00:13.808Z,5.17
2023-05-01T02:02:42.896Z,4.20
2023-05-01T02:05:13.419Z,5.30
2023-05-01T02:07:43.703Z,4.73
2023-05-01T02:10:13.738Z,6.27
2023-05-01T02:12:42.385Z,6.63
2023-05-01T02:15:12.406Z,5.03
2023-05-01T02:17:42.792Z,5.20
2023-05-01T02:20:13.434Z,5.37
2023-05-01T02:22:43.635Z,4.20
2023-05-01T02:25:13.184Z,6.50
2023-05-01T02:27:42.784Z,5.07
2023-05-01T02:30:11.501Z,4.60
2023-05-01T02:32:39.971Z,5.50
2023-05-01T02:35:08.561Z,4.63
2023-05-01T02:37:36.928Z,5.37
2023-05-01T02:40:08.631Z,5.40
2023-05-01T02:42:36.982Z,4.63
2023-05-01T02:45:07.258Z,4.93
2023-05-01T02:47:38.093Z,5.50
2023-05-01T02:50:07.874Z,5.70
2023-05-01T02:52:36.724Z,5.50
2023-05-01T02:55:05.493Z,4.90
2023-05-01T02:57:35.661Z,4.27
2023-05-01T03:00:04.487Z,4.70
2023-05-01T03:02:33.554Z,4.13
2023-05-01T03:05:01.936Z,4.40
2023-05-01T03:07:35.020Z,5.07
2023-05-01T03:10:04.352Z,4.80
2023-05-01T03:12:32.707Z,5.90
2023-05-01T03:15:02.496Z,5.60
2023-05-01T03:17:31.158Z,4.80
2023-05-01T03:19:59.530Z,5.30
2023-05-01T03:22:33.032Z,5.07
2023-05-01T03:25:01.882Z,4.60
2023-05-01T03:27:30.815Z,5.40
2023-05-01T03:29:59.210Z,4.73
2023-05-01T03:32:29.431Z,5.23
2023-05-01T03:34:57.979Z,3.97
2023-05-01T03:37:26.954Z,4.97
2023-05-01T03:39:55.443Z,5.17
2023-05-01T03:42:24.505Z,5.50
2023-05-01T03:44:52.856Z,4.83
2023-05-01T03:47:21.283Z,5.30
2023-05-01T03:49:50.978Z,5.70
2023-05-01T03:52:19.327Z,6.10
2023-05-01T03:54:47.930Z,3.97
2023-05-01T03:57:16.345Z,5.13
2023-05-01T03:59:44.921Z,5.03
2023-05-01T04:02:13.257Z,5.13
2023-05-01T04:04:41.627Z,5.27
2023-05-01T04:07:11.718Z,4.87
2023-05-01T04:09:40.047Z,5.57
2023-05-01T04:12:08.376Z,5.90
2023-05-01T04:14:36.723Z,6.33
2023-05-01T04:17:05.120Z,4.70
2023-05-01T04:19:34.838Z,5.00
2023-05-01T04:22:03.777Z,4.90
2023-05-01T04:24:33.633Z,5.07
2023-05-01T04:27:02.000Z,4.50
2023-05-01T04:29:30.401Z,5.43
2023-05-01T04:31:58.951Z,4.53
2023-05-01T04:34:29.405Z,4.80
2023-05-01T04:36:58.214Z,5.43
2023-05-01T04:39:26.573Z,5.23
2023-05-01T04:41:56.286Z,5.50
2023-05-01T04:44:24.689Z,5.03
2023-05-01T04:46:53.168Z,5.33
2023-05-01T04:49:21.639Z,4.17
2023-05-01T04:51:50.806Z,6.20
2023-05-01T04:54:19.111Z,5.67
2023-05-01T04:56:47.482Z,6.40
2023-05-01T04:59:17.405Z,5.77
2023-05-01T05:01:45.869Z,5.37
2023-05-01T05:04:14.270Z,6.50
2023-05-01T05:06:42.737Z,5.00
2023-05-01T05:09:11.623Z,5.90
2023-05-01T05:11:39.957Z,5.37
2023-05-01T05:14:08.278Z,6.00
2023-05-01T05:16:38.004Z,5.33
2023-05-01T05:19:06.374Z,6.40
2023-05-01T05:21:34.753Z,4.93
2023-05-01T05:24:03.103Z,5.20
2023-05-01T05:26:31.493Z,5.60
2023-05-01T05:28:59.864Z,4.77
2023-05-01T05:31:28.341Z,4.90
2023-05-01T05:33:58.136Z,4.60
2023-05-01T05:36:27.737Z,5.70
2023-05-01T05:38:56.101Z,5.77
2023-05-01T05:41:24.525Z,4.80
2023-05-01T05:43:54.188Z,5.40
2023-05-01T05:46:22.593Z,6.00
2023-05-01T05:48:51.041Z,5.70
2023-05-01T05:51:20.734Z,5.00
2023-05-01T05:53:49.071Z,4.77
2023-05-01T05:56:17.391Z,6.13
2023-05-01T05:58:45.714Z,5.00
2023-05-01T06:01:15.058Z,5.70
2023-05-01T06:03:43.536Z,5.63
2023-05-01T06:06:12.114Z,5.60
2023-05-01T06:08:41.887Z,5.47
2023-05-01T06:11:10.701Z,4.73
2023-05-01T06:13:39.063Z,6.40
2023-05-01T06:16:08.394Z,5.20
2023-05-01T06:18:36.868Z,5.50
2023-05-01T06:21:05.266Z,6.40
2023-05-01T06:23:34.791Z,6.17
2023-05-01T06:26:04.532Z,5.33
2023-05-01T06:28:32.845Z,6.40
2023-05-01T06:31:01.195Z,5.83
2023-05-01T06:33:29.593Z,5.07
2023-05-01T06:35:59.783Z,4.83
2023-05-01T06:38:28.194Z,5.37
2023-05-01T06:40:56.597Z,5.23
2023-05-01T06:43:28.082Z,6.00
2023-05-01T06:45:56.430Z,5.00
2023-05-01T06:48:24.896Z,5.70
2023-05-01T06:50:53.361Z,4.90
2023-05-01T06:53:21.657Z,5.07
2023-05-01T06:55:50.009Z,5.57
2023-05-01T06:58:23.978Z,5.17
2023-05-01T07:00:54.284Z,6.37
2023-05-01T07:03:23.135Z,7.17
2023-05-01T07:05:51.539Z,6.00
2023-05-01T07:08:19.949Z,5.90
2023-05-01T07:10:49.631Z,5.93
2023-05-01T07:13:18.193Z,5.43
2023-05-01T07:15:46.748Z,6.30
2023-05-01T07:18:17.186Z,6.43
2023-05-01T07:20:45.682Z,6.05
2023-05-01T07:23:14.045Z,6.30
2023-05-01T07:25:42.822Z,5.40
2023-05-01T07:28:11.236Z,6.73
2023-05-01T07:30:39.666Z,5.37
2023-05-01T07:33:08.154Z,4.90
2023-05-01T07:35:37.933Z,5.70
2023-05-01T07:38:06.288Z,5.27
2023-05-01T07:40:35.247Z,6.83
2023-05-01T07:43:03.941Z,6.20
2023-05-01T07:45:32.508Z,5.57
2023-05-01T07:48:00.989Z,5.40
2023-05-01T07:50:29.402Z,5.93
2023-05-01T07:52:59.101Z,5.00
2023-05-01T07:55:27.441Z,6.13
2023-05-01T07:57:56.120Z,6.70
2023-05-01T08:00:24.674Z,5.33
2023-05-01T08:02:53.600Z,6.37
2023-05-01T08:05:22.096Z,5.87
2023-05-01T08:07:50.560Z,5.57
2023-05-01T08:10:20.667Z,5.80
2023-05-01T08:12:49.039Z,5.90
2023-05-01T08:15:17.445Z,5.80
2023-05-01T08:17:46.852Z,6.20
2023-05-01T08:20:15.475Z,5.33
2023-05-01T08:22:43.895Z,5.53
2023-05-01T08:25:12.223Z,6.03
2023-05-01T08:27:42.004Z,5.77
2023-05-01T08:30:10.662Z,5.50
2023-05-01T08:32:39.061Z,6.10
2023-05-01T08:35:08.788Z,5.13
2023-05-01T08:37:37.165Z,5.83
2023-05-01T08:40:08.818Z,5.67
2023-05-01T08:42:39.056Z,5.43
2023-05-01T08:45:10.655Z,5.80
2023-05-01T08:47:39.566Z,6.13
2023-05-01T08:50:12.008Z,4.70
2023-05-01T08:52:42.141Z,5.23
2023-05-01T08:55:13.695Z,5.00
2023-05-01T08:57:46.090Z,4.43
2023-05-01T09:00:19.458Z,5.53
2023-05-01T09:02:49.614Z,4.80
2023-05-01T09:05:18.221Z,5.53
2023-05-01T09:07:46.995Z,5.67
2023-05-01T09:10:15.933Z,5.37
2023-05-01T09:12:46.447Z,4.40
2023-05-01T09:15:16.175Z,4.57
2023-05-01T09:17:44.934Z,4.60
2023-05-01T09:20:14.066Z,4.77
2023-05-01T09:22:42.698Z,4.60
2023-05-01T09:25:11.671Z,4.97
2023-05-01T09:27:40.117Z,4.63
2023-05-01T09:30:09.548Z,4.70
2023-05-01T09:32:41.903Z,4.87
2023-05-01T09:35:11.793Z,4.87
2023-05-01T09:37:40.861Z,4.90
2023-05-01T09:40:09.979Z,4.80
2023-05-01T09:42:39.460Z,4.47
2023-05-01T09:45:08.954Z,4.40
2023-05-01T09:47:38.822Z,4.13
2023-05-01T09:50:07.727Z,3.93
2023-05-01T09:52:36.051Z,4.40
2023-05-01T09:55:16.801Z,4.97
2023-05-01T09:57:45.815Z,4.57
2023-05-01T10:00:15.493Z,4.37
2023-05-01T10:02:46.614Z,5.03
2023-05-01T10:05:15.254Z,4.80
2023-05-01T10:07:58.325Z,4.47
2023-05-01T10:10:26.652Z,4.07
2023-05-01T10:12:55.084Z,4.30
2023-05-01T10:15:26.529Z,3.90
2023-05-01T10:17:57.401Z,4.10
2023-05-01T10:20:25.855Z,4.40
2023-05-01T10:22:54.234Z,3.70
2023-05-01T10:25:22.802Z,4.07
2023-05-01T10:27:52.996Z,4.30
2023-05-01T10:30:21.868Z,4.60
2023-05-01T10:32:50.658Z,4.40
2023-05-01T10:35:23.467Z,3.57
2023-05-01T10:37:57.441Z,4.20
2023-05-01T10:40:47.901Z,3.30
2023-05-01T10:43:25.846Z,5.20
2023-05-01T10:45:56.888Z,3.70
2023-05-01T10:48:45.796Z,4.30
2023-05-01T10:51:20.411Z,4.57
2023-05-01T10:53:49.524Z,4.60
2023-05-01T10:56:38.322Z,4.70
2023-05-01T10:59:07.481Z,4.50
2023-05-01T11:01:36.857Z,4.53
2023-05-01T11:04:08.108Z,4.43
2023-05-01T11:06:38.872Z,4.13
2023-05-01T11:09:22.168Z,4.57
2023-05-01T11:11:50.632Z,4.57
2023-05-01T11:14:20.991Z,4.93
2023-05-01T11:16:51.118Z,5.20
2023-05-01T11:19:38.322Z,6.70
2023-05-01T11:22:14.940Z,5.23
2023-05-01T11:24:43.695Z,6.00
2023-05-01T11:27:15.768Z,5.90
2023-05-01T11:29:49.865Z,4.50
2023-05-01T11:32:22.087Z,5.40
2023-05-01T11:34:51.489Z,4.67
2023-05-01T11:37:21.289Z,5.13
2023-05-01T11:39:50.666Z,4.50
2023-05-01T11:42:22.191Z,5.50
2023-05-01T11:45:10.995Z,4.30
2023-05-01T11:47:39.477Z,4.70
2023-05-01T11:50:08.835Z,4.70
2023-05-01T11:52:45.589Z,5.93
2023-05-01T11:55:14.367Z,5.60
2023-05-01T11:57:49.459Z,3.97
2023-05-01T12:00:18.586Z,4.53
2023-05-01T12:03:02.153Z,4.17
2023-05-01T12:05:31.777Z,4.87
2023-05-01T12:08:18.562Z,4.50
2023-05-01T12:10:48.300Z,4.37
2023-05-01T12:13:17.205Z,4.10
2023-05-01T12:15:47.672Z,4.23
2023-05-01T12:18:16.406Z,4.10
2023-05-01T12:20:45.339Z,4.13
2023-05-01T12:23:16.375Z,4.67
2023-05-01T12:25:45.522Z,3.43
2023-05-01T12:28:15.165Z,3.40
2023-05-01T12:30:44.845Z,3.23
2023-05-01T12:33:13.870Z,2.70
2023-05-01T12:35:43.850Z,3.30
2023-05-01T12:38:12.964Z,2.90
2023-05-01T12:40:43.069Z,3.10
2023-05-01T12:43:11.479Z,3.77
2023-05-01T12:45:42.915Z,3.30
2023-05-01T12:48:12.171Z,3.47
2023-05-01T12:50:40.713Z,3.20
2023-05-01T12:53:09.761Z,3.47
2023-05-01T12:55:47.597Z,3.07
2023-05-01T12:58:16.157Z,3.10
2023-05-01T13:00:46.029Z,4.00
2023-05-01T13:03:16.874Z,3.53
2023-05-01T13:05:55.733Z,4.80
2023-05-01T13:08:27.190Z,3.90
2023-05-01T13:10:57.570Z,4.17
2023-05-01T13:13:27.157Z,3.87
2023-05-01T13:15:56.221Z,4.30
2023-05-01T13:18:24.622Z,5.23
2023-05-01T13:20:53.022Z,5.23
2023-05-01T13:23:21.352Z,5.87
2023-05-01T13:25:58.168Z,5.60
2023-05-01T13:28:28.094Z,7.10
2023-05-01T13:30:56.664Z,7.20
2023-05-01T13:33:25.179Z,7.63
2023-05-01T13:35:53.489Z,6.53
2023-05-01T13:38:24.573Z,7.20
2023-05-01T13:40:52.925Z,7.20
2023-05-01T13:43:22.447Z,6.90
2023-05-01T13:45:52.258Z,7.37
2023-05-01T13:48:21.109Z,7.63
2023-05-01T13:50:49.457Z,6.20
2023-05-01T13:53:18.155Z,24.53
2023-05-01T13:55:46.528Z,11.83
2023-05-01T13:58:14.837Z,10.23
2023-05-01T14:00:43.225Z,19.53
2023-05-01T14:03:13.077Z,30.13
2023-05-01T14:05:42.410Z,26.23
2023-05-01T14:08:10.821Z,13.20
2023-05-01T14:10:39.222Z,25.57
2023-05-01T14:13:07.909Z,13.93
2023-05-01T14:15:36.317Z,12.10
2023-05-01T14:18:07.182Z,8.37
2023-05-01T14:20:36.974Z,11.17
2023-05-01T14:23:05.481Z,11.10
2023-05-01T14:25:35.555Z,7.03
2023-05-01T14:28:07.986Z,8.57
2023-05-01T14:30:38.562Z,7.43
2023-05-01T14:33:07.989Z,8.30
2023-05-01T14:35:38.039Z,7.63
2023-05-01T14:38:10.048Z,8.30
2023-05-01T14:40:38.389Z,8.80
2023-05-01T14:43:07.537Z,7.70
2023-05-01T14:45:37.695Z,7.47
2023-05-01T14:48:06.445Z,7.30
2023-05-01T14:50:34.923Z,6.67
2023-05-01T14:53:04.715Z,6.90
2023-05-01T14:55:34.824Z,7.10
2023-05-01T14:58:03.646Z,6.80
2023-05-01T15:00:32.065Z,4.50
2023-05-01T15:03:00.848Z,4.13
2023-05-01T15:05:29.281Z,3.73
2023-05-01T15:08:00.378Z,4.70
2023-05-01T15:10:31.766Z,2.93
2023-05-01T15:13:00.700Z,3.37
2023-05-01T15:15:29.750Z,2.90
2023-05-01T15:17:58.115Z,2.50
2023-05-01T15:20:26.499Z,3.67
2023-05-01T15:22:54.906Z,2.95
2023-05-01T15:25:23.262Z,3.80
2023-05-01T15:27:53.002Z,3.50
2023-05-01T15:30:21.356Z,2.17
2023-05-01T15:32:49.960Z,2.57
2023-05-01T15:35:19.065Z,2.80
2023-05-01T15:37:47.764Z,2.70
2023-05-01T15:40:16.257Z,2.73
2023-05-01T15:42:45.501Z,3.00
2023-05-01T15:45:15.226Z,2.63
2023-05-01T15:47:43.605Z,2.77
2023-05-01T15:50:14.826Z,2.80
2023-05-01T15:52:43.218Z,2.70
2023-05-01T15:55:11.789Z,2.50
2023-05-01T15:57:40.149Z,2.70
2023-05-01T16:00:09.558Z,2.13
2023-05-01T16:02:39.368Z,2.20
2023-05-01T16:05:08.580Z,2.50
2023-05-01T16:07:36.939Z,2.03
2023-05-01T16:10:05.954Z,2.73
2023-05-01T16:12:34.338Z,1.77
2023-05-01T16:15:03.769Z,2.80
2023-05-01T16:17:33.596Z,2.13
2023-05-01T16:20:03.904Z,2.20
2023-05-01T16:22:34.249Z,2.33
2023-05-01T16:25:02.580Z,2.40
2023-05-01T16:27:30.949Z,2.47
2023-05-01T16:29:59.607Z,2.00
2023-05-01T16:32:28.299Z,2.70
2023-05-01T16:34:56.687Z,3.00
2023-05-01T16:37:27.841Z,3.90
2023-05-01T16:39:56.324Z,2.93
2023-05-01T16:42:24.676Z,2.60
2023-05-01T16:44:53.109Z,3.27
2023-05-01T16:47:21.519Z,2.40
2023-05-01T16:49:51.213Z,2.87
2023-05-01T16:52:19.695Z,3.40
2023-05-01T16:54:49.410Z,2.67
2023-05-01T16:57:17.881Z,3.00
2023-05-01T16:59:46.215Z,2.43
2023-05-01T17:02:14.602Z,2.70
2023-05-01T17:04:43.105Z,2.63
2023-05-01T17:07:11.548Z,3.97
2023-05-01T17:09:39.881Z,2.87
2023-05-01T17:12:09.991Z,2.90
2023-05-01T17:14:38.344Z,3.80
2023-05-01T17:17:09.365Z,2.90
2023-05-01T17:19:38.981Z,3.53
2023-05-01T17:22:07.540Z,4.57
2023-05-01T17:24:36.585Z,5.20
2023-05-01T17:27:04.936Z,5.70
2023-05-01T17:29:34.928Z,5.03
2023-05-01T17:32:04.474Z,4.70
2023-05-01T17:34:32.906Z,8.03
2023-05-01T17:37:01.229Z,4.20
2023-05-01T17:39:29.552Z,2.20
2023-05-01T17:41:57.908Z,3.00
2023-05-01T17:44:26.299Z,3.07
2023-05-01T17:46:56.106Z,2.90
2023-05-01T17:49:24.670Z,2.87
2023-05-01T17:51:53.069Z,2.53
2023-05-01T17:54:21.579Z,2.70
2023-05-01T17:56:49.959Z,3.23
2023-05-01T17:59:18.416Z,2.77
2023-05-01T18:01:48.218Z,3.10
2023-05-01T18:04:18.536Z,2.53
2023-05-01T18:06:47.171Z,2.77
2023-05-01T18:09:15.600Z,2.50
2023-05-01T18:11:43.941Z,2.73
2023-05-01T18:14:12.243Z,3.00
2023-05-01T18:16:41.491Z,2.83
2023-05-01T18:19:09.912Z,2.50
2023-05-01T18:21:39.829Z,2.63
2023-05-01T18:24:08.699Z,3.70
2023-05-01T18:26:37.245Z,2.47
2023-05-01T18:29:05.591Z,3.30
2023-05-01T18:31:35.915Z,2.70
2023-05-01T18:34:04.373Z,2.57
2023-05-01T18:36:32.755Z,4.03
2023-05-01T18:39:02.476Z,3.10
2023-05-01T18:41:30.875Z,2.57
2023-05-01T18:44:01.401Z,3.10
2023-05-01T18:46:29.895Z,2.30
2023-05-01T18:48:59.699Z,3.00
2023-05-01T18:51:28.050Z,3.50
2023-05-01T18:53:56.379Z,3.40
2023-05-01T18:56:27.650Z,2.97
2023-05-01T18:58:56.230Z,3.40
2023-05-01T19:01:25.418Z,2.37
2023-05-01T19:03:58.819Z,3.93
2023-05-01T19:06:27.327Z,3.70
2023-05-01T19:08:55.883Z,3.40
2023-05-01T19:11:27.561Z,3.07
2023-05-01T19:13:56.003Z,3.23
2023-05-01T19:16:24.453Z,2.67
2023-05-01T19:18:52.889Z,3.80
2023-05-01T19:21:21.285Z,5.27
2023-05-01T19:23:49.717Z,4.37
2023-05-01T19:26:18.030Z,5.37
2023-05-01T19:28:47.751Z,5.10
2023-05-01T19:31:18.987Z,4.53
2023-05-01T19:33:48.827Z,4.47
2023-05-01T19:36:17.248Z,4.30
2023-05-01T19:38:45.581Z,3.67
2023-05-01T19:41:14.046Z,4.00
2023-05-01T19:43:42.394Z,4.13
2023-05-01T19:46:12.144Z,3.90
2023-05-01T19:48:40.577Z,3.03
2023-05-01T19:51:08.977Z,3.30
2023-05-01T19:53:37.384Z,4.00
2023-05-01T19:56:06.792Z,3.60
2023-05-01T19:58:35.106Z,4.00
2023-05-01T20:01:08.243Z,3.40
2023-05-01T20:03:38.078Z,3.20
2023-05-01T20:06:07.378Z,3.67
2023-05-01T20:08:35.791Z,3.93
2023-05-01T20:11:04.173Z,4.90
2023-05-01T20:13:32.626Z,4.47
2023-05-01T20:16:01.020Z,3.70
2023-05-01T20:18:29.360Z,3.73
2023-05-01T20:20:59.093Z,4.30
2023-05-01T20:23:27.423Z,3.27
2023-05-01T20:25:55.807Z,3.00
2023-05-01T20:28:24.149Z,3.63
2023-05-01T20:30:52.521Z,4.40
2023-05-01T20:33:20.829Z,3.40
2023-05-01T20:35:49.252Z,3.97
2023-05-01T20:38:19.024Z,4.40
2023-05-01T20:40:47.384Z,4.20
2023-05-01T20:43:15.736Z,4.47
2023-05-01T20:45:44.120Z,3.67
2023-05-01T20:48:12.726Z,3.83
2023-05-01T20:50:43.676Z,3.33
2023-05-01T20:53:12.033Z,4.13
2023-05-01T20:55:41.746Z,3.53
2023-05-01T20:58:10.085Z,3.07
2023-05-01T21:00:38.452Z,3.30
2023-05-01T21:03:06.848Z,2.77
2023-05-01T21:05:35.274Z,2.90
2023-05-01T21:08:03.993Z,3.17
2023-05-01T21:10:32.570Z,2.70
2023-05-01T21:13:02.249Z,3.10
2023-05-01T21:15:31.980Z,3.30
2023-05-01T21:18:00.622Z,2.67
2023-05-01T21:20:32.319Z,3.33
2023-05-01T21:23:01.126Z,3.47
2023-05-01T21:25:31.866Z,2.60
2023-05-01T21:28:03.561Z,2.53
2023-05-01T21:30:33.489Z,3.60
2023-05-01T21:33:02.528Z,3.07
2023-05-01T21:35:31.167Z,3.47
2023-05-01T21:37:59.758Z,3.20
2023-05-01T21:40:28.560Z,3.73
2023-05-01T21:42:57.159Z,2.80
2023-05-01T21:45:27.698Z,3.13
2023-05-01T21:47:56.081Z,3.90
2023-05-01T21:50:24.446Z,3.20
2023-05-01T21:52:52.837Z,3.30
2023-05-01T21:55:21.759Z,3.33
2023-05-01T21:57:50.838Z,2.97
2023-05-01T22:00:20.008Z,3.80
2023-05-01T22:02:51.009Z,3.10
2023-05-01T22:05:20.306Z,3.20
2023-05-01T22:07:48.798Z,3.90
2023-05-01T22:10:17.964Z,2.93
2023-05-01T22:12:46.754Z,4.10
2023-05-01T22:15:16.498Z,3.83
2023-05-01T22:17:45.432Z,3.30
2023-05-01T22:20:15.270Z,3.10
2023-05-01T22:22:43.846Z,3.83
2023-05-01T22:25:13.117Z,2.80
2023-05-01T22:27:41.807Z,4.53
2023-05-01T22:30:10.855Z,3.60
2023-05-01T22:32:39.237Z,3.83
2023-05-01T22:35:08.535Z,3.90
2023-05-01T22:37:38.296Z,3.93
2023-05-01T22:40:07.329Z,3.53
2023-05-01T22:42:36.108Z,3.73
2023-05-01T22:45:04.489Z,3.73
2023-05-01T22:47:32.970Z,3.57
2023-05-01T22:50:01.587Z,2.93
2023-05-01T22:52:30.219Z,3.47
2023-05-01T22:54:59.923Z,3.67
2023-05-01T22:57:28.650Z,3.40
2023-05-01T22:59:57.245Z,3.70
2023-05-01T23:02:26.007Z,3.37
2023-05-01T23:04:54.407Z,4.40
2023-05-01T23:07:22.721Z,4.43
2023-05-01T23:09:51.017Z,2.93
2023-05-01T23:12:23.574Z,3.97
2023-05-01T23:14:51.989Z,4.40
2023-05-01T23:17:21.090Z,4.37
2023-05-01T23:19:49.725Z,3.70
2023-05-01T23:22:18.824Z,3.47
2023-05-01T23:24:48.753Z,4.50
2023-05-01T23:27:17.893Z,3.57
2023-05-01T23:29:55.108Z,4.20
2023-05-01T23:32:27.880Z,3.97
2023-05-01T23:34:56.900Z,3.53
2023-05-01T23:37:25.290Z,3.50
2023-05-01T23:39:53.856Z,4.57
2023-05-01T23:42:22.775Z,3.50
2023-05-01T23:44:52.633Z,4.43
2023-05-01T23:47:21.314Z,3.70
2023-05-01T23:49:49.987Z,3.77
2023-05-01T23:52:18.319Z,4.43
2023-05-01T23:54:46.825Z,3.40
2023-05-01T23:57:15.614Z,3.53
2023-05-01T23:59:43.970Z,4.20
